sensor_id;sensor_type;location;lat;lon;timestamp;pressure;altitude;pressure_sealevel;temperature;humidity
69751;BME280;57335;52.288;6.056;2024-02-26T00:02:01;100050.66;;;4.61;100.00
69751;BME280;57335;52.288;6.056;2024-02-26T00:04:28;100055.84;;;4.61;100.00
69751;BME280;57335;52.288;6.056;2024-02-26T00:06:54;100060.84;;;4.63;100.00
69751;BME280;57335;52.288;6.056;2024-02-26T00:09:22;100060.03;;;4.62;100.00
69751;BME280;57335;52.288;6.056;2024-02-26T00:11:49;100059.59;;;4.58;100.00
69751;BME280;57335;52.288;6.056;2024-02-26T00:14:15;100068.63;;;4.63;100.00
69751;BME280;57335;52.288;6.056;2024-02-26T00:16:42;100068.19;;;4.59;100.00
69751;BME280;57335;52.288;6.056;2024-02-26T00:19:09;100078.38;;;4.60;100.00
69751;BME280;57335;52.288;6.056;2024-02-26T00:21:40;100078.16;;;4.55;100.00
69751;BME280;57335;52.288;6.056;2024-02-26T00:24:06;100080.13;;;4.53;100.00
69751;BME280;57335;52.288;6.056;2024-02-26T00:26:34;100084.50;;;4.53;100.00
69751;BME280;57335;52.288;6.056;2024-02-26T00:29:00;100082.09;;;4.51;100.00
69751;BME280;57335;52.288;6.056;2024-02-26T00:31:29;100083.69;;;4.52;100.00
69751;BME280;57335;52.288;6.056;2024-02-26T00:33:56;100090.06;;;4.50;100.00
69751;BME280;57335;52.288;6.056;2024-02-26T00:36:23;100090.41;;;4.47;100.00
69751;BME280;57335;52.288;6.056;2024-02-26T00:38:49;100084.44;;;4.46;100.00
69751;BME280;57335;52.288;6.056;2024-02-26T00:41:20;100076.03;;;4.44;100.00
69751;BME280;57335;52.288;6.056;2024-02-26T00:43:46;100078.00;;;4.42;100.00
69751;BME280;57335;52.288;6.056;2024-02-26T00:46:13;100075.78;;;4.39;100.00
69751;BME280;57335;52.288;6.056;2024-02-26T00:48:40;100071.94;;;4.35;100.00
69751;BME280;57335;52.288;6.056;2024-02-26T00:51:06;100072.66;;;4.29;100.00
69751;BME280;57335;52.288;6.056;2024-02-26T00:53:34;100079.84;;;4.27;100.00
69751;BME280;57335;52.288;6.056;2024-02-26T00:56:01;100081.81;;;4.25;100.00
69751;BME280;57335;52.288;6.056;2024-02-26T00:58:27;100077.19;;;4.20;100.00
69751;BME280;57335;52.288;6.056;2024-02-26T01:00:54;100078.69;;;4.14;100.00
69751;BME280;57335;52.288;6.056;2024-02-26T01:03:21;100085.25;;;4.10;100.00
69751;BME280;57335;52.288;6.056;2024-02-26T01:05:48;100093.41;;;4.07;100.00
69751;BME280;57335;52.288;6.056;2024-02-26T01:08:15;100096.00;;;4.07;100.00
69751;BME280;57335;52.288;6.056;2024-02-26T01:10:41;100100.91;;;4.02;100.00
69751;BME280;57335;52.288;6.056;2024-02-26T01:13:08;100101.53;;;4.04;100.00
69751;BME280;57335;52.288;6.056;2024-02-26T01:15:35;100101.06;;;4.00;100.00
69751;BME280;57335;52.288;6.056;2024-02-26T01:18:01;100097.00;;;3.91;100.00
69751;BME280;57335;52.288;6.056;2024-02-26T01:20:28;100091.38;;;3.88;100.00
69751;BME280;57335;52.288;6.056;2024-02-26T01:22:55;100092.88;;;3.82;100.00
69751;BME280;57335;52.288;6.056;2024-02-26T01:25:21;100082.88;;;3.79;100.00
69751;BME280;57335;52.288;6.056;2024-02-26T01:27:48;100082.44;;;3.75;100.00
69751;BME280;57335;52.288;6.056;2024-02-26T01:30:15;100084.41;;;3.73;100.00
69751;BME280;57335;52.288;6.056;2024-02-26T01:32:43;100084.75;;;3.70;100.00
69751;BME280;57335;52.288;6.056;2024-02-26T01:35:10;100074.38;;;3.70;100.00
69751;BME280;57335;52.288;6.056;2024-02-26T01:37:38;100075.09;;;3.64;100.00
69751;BME280;57335;52.288;6.056;2024-02-26T01:40:06;100083.50;;;3.66;100.00
69751;BME280;57335;52.288;6.056;2024-02-26T01:42:33;100070.63;;;3.58;100.00
69751;BME280;57335;52.288;6.056;2024-02-26T01:45:00;100069.28;;;3.62;100.00
69751;BME280;57335;52.288;6.056;2024-02-26T01:47:27;100074.47;;;3.62;100.00
69751;BME280;57335;52.288;6.056;2024-02-26T01:49:55;100075.81;;;3.58;100.00
69751;BME280;57335;52.288;6.056;2024-02-26T01:52:22;100076.44;;;3.60;100.00
69751;BME280;57335;52.288;6.056;2024-02-26T01:54:49;100074.13;;;3.65;100.00
69751;BME280;57335;52.288;6.056;2024-02-26T01:57:16;100070.38;;;3.68;100.00
69751;BME280;57335;52.288;6.056;2024-02-26T01:59:43;100075.56;;;3.68;100.00
69751;BME280;57335;52.288;6.056;2024-02-26T02:02:10;100080.19;;;3.72;100.00
69751;BME280;57335;52.288;6.056;2024-02-26T02:04:38;100076.81;;;3.72;100.00
69751;BME280;57335;52.288;6.056;2024-02-26T02:07:05;100090.38;;;3.74;100.00
69751;BME280;57335;52.288;6.056;2024-02-26T02:09:32;100096.66;;;3.79;100.00
69751;BME280;57335;52.288;6.056;2024-02-26T02:11:59;100098.84;;;3.83;100.00
69751;BME280;57335;52.288;6.056;2024-02-26T02:14:25;100108.09;;;3.85;100.00
69751;BME280;57335;52.288;6.056;2024-02-26T02:16:52;100108.44;;;3.82;100.00
69751;BME280;57335;52.288;6.056;2024-02-26T02:19:19;100108.44;;;3.82;100.00
69751;BME280;57335;52.288;6.056;2024-02-26T02:21:45;100106.00;;;3.80;100.00
69751;BME280;57335;52.288;6.056;2024-02-26T02:24:12;100108.34;;;3.75;100.00
69751;BME280;57335;52.288;6.056;2024-02-26T02:26:38;100102.25;;;3.68;100.00
69751;BME280;57335;52.288;6.056;2024-02-26T02:29:06;100105.66;;;3.69;100.00
69751;BME280;57335;52.288;6.056;2024-02-26T02:31:34;100099.84;;;3.67;100.00
69751;BME280;57335;52.288;6.056;2024-02-26T02:34:00;100102.00;;;3.63;100.00
69751;BME280;57335;52.288;6.056;2024-02-26T02:36:27;100101.28;;;3.69;100.00
69751;BME280;57335;52.288;6.056;2024-02-26T02:38:54;100097.78;;;3.62;100.00
69751;BME280;57335;52.288;6.056;2024-02-26T02:41:20;100101.00;;;3.64;100.00
69751;BME280;57335;52.288;6.056;2024-02-26T02:43:48;100111.38;;;3.64;100.00
69751;BME280;57335;52.288;6.056;2024-02-26T02:46:14;100119.22;;;3.71;100.00
69751;BME280;57335;52.288;6.056;2024-02-26T02:48:41;100125.94;;;3.80;100.00
69751;BME280;57335;52.288;6.056;2024-02-26T02:51:09;100123.63;;;3.70;100.00
69751;BME280;57335;52.288;6.056;2024-02-26T02:53:35;100125.16;;;3.79;100.00
69751;BME280;57335;52.288;6.056;2024-02-26T02:56:02;100127.56;;;3.81;100.00
69751;BME280;57335;52.288;6.056;2024-02-26T02:58:28;100137.22;;;3.87;100.00
69751;BME280;57335;52.288;6.056;2024-02-26T03:00:55;100138.81;;;3.88;100.00
69751;BME280;57335;52.288;6.056;2024-02-26T03:03:22;100139.19;;;3.85;100.00
69751;BME280;57335;52.288;6.056;2024-02-26T03:05:50;100139.63;;;3.89;100.00
69751;BME280;57335;52.288;6.056;2024-02-26T03:08:17;100148.63;;;3.93;100.00
69751;BME280;57335;52.288;6.056;2024-02-26T03:10:45;100154.66;;;3.93;100.00
69751;BME280;57335;52.288;6.056;2024-02-26T03:13:12;100147.75;;;4.00;100.00
69751;BME280;57335;52.288;6.056;2024-02-26T03:15:39;100150.16;;;4.02;100.00
69751;BME280;57335;52.288;6.056;2024-02-26T03:18:05;100148.19;;;4.04;100.00
69751;BME280;57335;52.288;6.056;2024-02-26T03:20:32;100156.25;;;4.09;100.00
69751;BME280;57335;52.288;6.056;2024-02-26T03:22:59;100154.63;;;4.08;100.00
69751;BME280;57335;52.288;6.056;2024-02-26T03:25:25;100159.03;;;4.08;100.00
69751;BME280;57335;52.288;6.056;2024-02-26T03:27:52;100158.56;;;4.04;100.00
69751;BME280;57335;52.288;6.056;2024-02-26T03:30:18;100155.53;;;4.00;100.00
69751;BME280;57335;52.288;6.056;2024-02-26T03:32:45;100166.72;;;4.01;100.00
69751;BME280;57335;52.288;6.056;2024-02-26T03:35:13;100167.34;;;4.03;100.00
69751;BME280;57335;52.288;6.056;2024-02-26T03:37:40;100173.13;;;3.90;100.00
69751;BME280;57335;52.288;6.056;2024-02-26T03:40:07;100177.44;;;3.98;100.00
69751;BME280;57335;52.288;6.056;2024-02-26T03:42:34;100175.28;;;4.02;100.00
69751;BME280;57335;52.288;6.056;2024-02-26T03:45:00;100171.34;;;4.06;100.00
69751;BME280;57335;52.288;6.056;2024-02-26T03:47:27;100182.06;;;4.03;100.00
69751;BME280;57335;52.288;6.056;2024-02-26T03:49:54;100186.91;;;4.06;100.00
69751;BME280;57335;52.288;6.056;2024-02-26T03:52:20;100175.91;;;4.04;100.00
69751;BME280;57335;52.288;6.056;2024-02-26T03:54:47;100185.56;;;4.10;100.00
69751;BME280;57335;52.288;6.056;2024-02-26T03:57:13;100176.38;;;4.07;100.00
69751;BME280;57335;52.288;6.056;2024-02-26T03:59:40;100190.59;;;4.11;100.00
69751;BME280;57335;52.288;6.056;2024-02-26T04:02:07;100187.91;;;4.19;100.00
69751;BME280;57335;52.288;6.056;2024-02-26T04:04:34;100187.72;;;4.21;100.00
69751;BME280;57335;52.288;6.056;2024-02-26T04:07:01;100187.44;;;4.16;100.00
69751;BME280;57335;52.288;6.056;2024-02-26T04:09:28;100196.13;;;4.23;100.00
69751;BME280;57335;52.288;6.056;2024-02-26T04:11:57;100202.22;;;4.15;100.00
69751;BME280;57335;52.288;6.056;2024-02-26T04:14:23;100203.47;;;4.19;100.00
69751;BME280;57335;52.288;6.056;2024-02-26T04:16:50;100199.72;;;4.07;100.00
69751;BME280;57335;52.288;6.056;2024-02-26T04:19:18;100215.97;;;4.01;100.00
69751;BME280;57335;52.288;6.056;2024-02-26T04:21:45;100210.78;;;4.01;100.00
69751;BME280;57335;52.288;6.056;2024-02-26T04:24:12;100200.44;;;4.01;100.00
69751;BME280;57335;52.288;6.056;2024-02-26T04:26:39;100200.75;;;3.98;100.00
69751;BME280;57335;52.288;6.056;2024-02-26T04:29:05;100205.03;;;3.91;100.00
69751;BME280;57335;52.288;6.056;2024-02-26T04:31:32;100203.72;;;3.95;100.00
69751;BME280;57335;52.288;6.056;2024-02-26T04:33:59;100210.59;;;3.88;100.00
69751;BME280;57335;52.288;6.056;2024-02-26T04:36:26;100211.06;;;3.91;100.00
69751;BME280;57335;52.288;6.056;2024-02-26T04:38:52;100220.50;;;3.84;100.00
69751;BME280;57335;52.288;6.056;2024-02-26T04:41:22;100228.03;;;3.94;100.00
69751;BME280;57335;52.288;6.056;2024-02-26T04:43:48;100231.34;;;3.88;100.00
69751;BME280;57335;52.288;6.056;2024-02-26T04:46:15;100226.25;;;3.94;100.00
69751;BME280;57335;52.288;6.056;2024-02-26T04:48:42;100229.38;;;3.90;100.00
69751;BME280;57335;52.288;6.056;2024-02-26T04:51:08;100231.97;;;3.90;100.00
69751;BME280;57335;52.288;6.056;2024-02-26T04:53:35;100239.56;;;3.91;100.00
69751;BME280;57335;52.288;6.056;2024-02-26T04:56:02;100242.78;;;3.93;100.00
69751;BME280;57335;52.288;6.056;2024-02-26T04:58:29;100246.19;;;3.94;100.00
69751;BME280;57335;52.288;6.056;2024-02-26T05:00:55;100247.44;;;3.98;100.00
69751;BME280;57335;52.288;6.056;2024-02-26T05:03:22;100237.78;;;3.92;100.00
69751;BME280;57335;52.288;6.056;2024-02-26T05:05:49;100242.78;;;3.93;100.00
69751;BME280;57335;52.288;6.056;2024-02-26T05:08:16;100256.88;;;3.91;100.00
69751;BME280;57335;52.288;6.056;2024-02-26T05:10:45;100252.34;;;3.93;100.00
69751;BME280;57335;52.288;6.056;2024-02-26T05:13:11;100251.38;;;3.94;100.00
69751;BME280;57335;52.288;6.056;2024-02-26T05:15:38;100245.97;;;3.80;100.00
69751;BME280;57335;52.288;6.056;2024-02-26T05:18:04;100256.38;;;3.95;100.00
69751;BME280;57335;52.288;6.056;2024-02-26T05:20:32;100254.91;;;3.93;100.00
69751;BME280;57335;52.288;6.056;2024-02-26T05:23:01;100257.19;;;3.96;100.00
69751;BME280;57335;52.288;6.056;2024-02-26T05:25:30;100255.94;;;4.07;100.00
69751;BME280;57335;52.288;6.056;2024-02-26T05:27:57;100254.25;;;3.99;100.00
69751;BME280;57335;52.288;6.056;2024-02-26T05:30:23;100256.75;;;4.07;100.00
69751;BME280;57335;52.288;6.056;2024-02-26T05:32:50;100257.09;;;4.04;100.00
69751;BME280;57335;52.288;6.056;2024-02-26T05:35:17;100262.81;;;4.14;100.00
69751;BME280;57335;52.288;6.056;2024-02-26T05:37:43;100269.19;;;4.12;100.00
69751;BME280;57335;52.288;6.056;2024-02-26T05:40:11;100266.41;;;4.13;100.00
69751;BME280;57335;52.288;6.056;2024-02-26T05:42:37;100264.44;;;4.15;100.00
69751;BME280;57335;52.288;6.056;2024-02-26T05:45:05;100272.69;;;4.19;100.00
69751;BME280;57335;52.288;6.056;2024-02-26T05:47:33;100276.69;;;4.22;100.00
69751;BME280;57335;52.288;6.056;2024-02-26T05:50:00;100280.53;;;4.26;100.00
69751;BME280;57335;52.288;6.056;2024-02-26T05:52:27;100276.31;;;4.25;100.00
69751;BME280;57335;52.288;6.056;2024-02-26T05:54:55;100284.94;;;4.25;100.00
69751;BME280;57335;52.288;6.056;2024-02-26T05:57:22;100303.34;;;4.30;100.00
69751;BME280;57335;52.288;6.056;2024-02-26T05:59:49;100290.22;;;4.17;100.00
69751;BME280;57335;52.288;6.056;2024-02-26T06:02:15;100293.44;;;4.19;100.00
69751;BME280;57335;52.288;6.056;2024-02-26T06:04:42;100290.00;;;4.18;100.00
69751;BME280;57335;52.288;6.056;2024-02-26T06:07:08;100300.28;;;4.12;100.00
69751;BME280;57335;52.288;6.056;2024-02-26T06:09:35;100306.75;;;4.16;100.00
69751;BME280;57335;52.288;6.056;2024-02-26T06:12:02;100312.63;;;4.10;100.00
69751;BME280;57335;52.288;6.056;2024-02-26T06:14:29;100311.47;;;4.12;100.00
69751;BME280;57335;52.288;6.056;2024-02-26T06:16:56;100318.78;;;4.09;100.00
69751;BME280;57335;52.288;6.056;2024-02-26T06:19:22;100320.25;;;4.11;100.00
69751;BME280;57335;52.288;6.056;2024-02-26T06:21:49;100317.81;;;4.10;100.00
69751;BME280;57335;52.288;6.056;2024-02-26T06:24:17;100322.84;;;4.11;100.00
69751;BME280;57335;52.288;6.056;2024-02-26T06:26:44;100321.66;;;4.14;100.00
69751;BME280;57335;52.288;6.056;2024-02-26T06:29:10;100320.25;;;4.11;100.00
69751;BME280;57335;52.288;6.056;2024-02-26T06:31:37;100323.09;;;4.16;100.00
69751;BME280;57335;52.288;6.056;2024-02-26T06:34:04;100332.22;;;4.12;100.00
69751;BME280;57335;52.288;6.056;2024-02-26T06:36:31;100323.25;;;4.15;100.00
69751;BME280;57335;52.288;6.056;2024-02-26T06:38:58;100328.34;;;4.08;100.00
69751;BME280;57335;52.288;6.056;2024-02-26T06:41:25;100337.31;;;4.06;100.00
69751;BME280;57335;52.288;6.056;2024-02-26T06:43:54;100361.16;;;4.01;100.00
69751;BME280;57335;52.288;6.056;2024-02-26T06:46:21;100341.31;;;4.08;100.00
69751;BME280;57335;52.288;6.056;2024-02-26T06:48:48;100340.59;;;3.99;100.00
69751;BME280;57335;52.288;6.056;2024-02-26T06:51:20;100333.00;;;3.98;100.00
69751;BME280;57335;52.288;6.056;2024-02-26T06:53:46;100341.56;;;3.98;100.00
69751;BME280;57335;52.288;6.056;2024-02-26T06:56:13;100363.81;;;3.93;100.00
69751;BME280;57335;52.288;6.056;2024-02-26T06:58:40;100356.00;;;4.01;100.00
69751;BME280;57335;52.288;6.056;2024-02-26T07:01:06;100364.47;;;3.95;100.00
69751;BME280;57335;52.288;6.056;2024-02-26T07:03:34;100352.75;;;3.99;100.00
69751;BME280;57335;52.288;6.056;2024-02-26T07:06:01;100360.09;;;3.95;100.00
69751;BME280;57335;52.288;6.056;2024-02-26T07:08:28;100366.22;;;3.94;100.00
69751;BME280;57335;52.288;6.056;2024-02-26T07:10:55;100373.69;;;3.97;100.00
69751;BME280;57335;52.288;6.056;2024-02-26T07:13:22;100370.63;;;3.94;100.00
69751;BME280;57335;52.288;6.056;2024-02-26T07:15:48;100382.09;;;3.99;100.00
69751;BME280;57335;52.288;6.056;2024-02-26T07:18:15;100374.53;;;3.90;100.00
69751;BME280;57335;52.288;6.056;2024-02-26T07:20:42;100369.75;;;4.02;100.00
69751;BME280;57335;52.288;6.056;2024-02-26T07:23:09;100370.84;;;4.07;100.00
69751;BME280;57335;52.288;6.056;2024-02-26T07:25:36;100376.09;;;3.99;100.00
69751;BME280;57335;52.288;6.056;2024-02-26T07:28:03;100383.50;;;4.02;100.00
69751;BME280;57335;52.288;6.056;2024-02-26T07:30:29;100388.94;;;4.15;100.00
69751;BME280;57335;52.288;6.056;2024-02-26T07:32:56;100391.84;;;4.12;100.00
69751;BME280;57335;52.288;6.056;2024-02-26T07:35:23;100389.09;;;4.14;100.00
69751;BME280;57335;52.288;6.056;2024-02-26T07:37:50;100383.28;;;4.12;100.00
69751;BME280;57335;52.288;6.056;2024-02-26T07:40:17;100384.72;;;4.14;100.00
69751;BME280;57335;52.288;6.056;2024-02-26T07:42:43;100402.53;;;4.17;100.00
69751;BME280;57335;52.288;6.056;2024-02-26T07:45:10;100396.63;;;4.24;100.00
69751;BME280;57335;52.288;6.056;2024-02-26T07:47:37;100405.13;;;4.17;100.00
69751;BME280;57335;52.288;6.056;2024-02-26T07:50:08;100403.88;;;4.28;100.00
69751;BME280;57335;52.288;6.056;2024-02-26T07:52:35;100400.41;;;4.21;100.00
69751;BME280;57335;52.288;6.056;2024-02-26T07:55:02;100415.25;;;4.27;100.00
69751;BME280;57335;52.288;6.056;2024-02-26T07:57:33;100414.00;;;4.23;100.00
69751;BME280;57335;52.288;6.056;2024-02-26T08:00:00;100415.75;;;4.23;100.00
69751;BME280;57335;52.288;6.056;2024-02-26T08:02:28;100405.84;;;4.26;100.00
69751;BME280;57335;52.288;6.056;2024-02-26T08:04:54;100420.44;;;4.27;100.00
69751;BME280;57335;52.288;6.056;2024-02-26T08:07:21;100420.63;;;4.26;100.00
69751;BME280;57335;52.288;6.056;2024-02-26T08:09:48;100421.06;;;4.29;100.00
69751;BME280;57335;52.288;6.056;2024-02-26T08:12:14;100420.25;;;4.29;100.00
69751;BME280;57335;52.288;6.056;2024-02-26T08:14:41;100428.66;;;4.31;100.00
69751;BME280;57335;52.288;6.056;2024-02-26T08:17:09;100427.75;;;4.24;100.00
69751;BME280;57335;52.288;6.056;2024-02-26T08:19:36;100442.06;;;4.19;100.00
69751;BME280;57335;52.288;6.056;2024-02-26T08:22:03;100427.63;;;4.40;100.00
69751;BME280;57335;52.288;6.056;2024-02-26T08:24:30;100431.97;;;4.25;100.00
69751;BME280;57335;52.288;6.056;2024-02-26T08:26:57;100446.38;;;4.27;100.00
69751;BME280;57335;52.288;6.056;2024-02-26T08:29:24;100442.25;;;4.33;100.00
69751;BME280;57335;52.288;6.056;2024-02-26T08:31:51;100434.38;;;4.26;100.00
69751;BME280;57335;52.288;6.056;2024-02-26T08:34:17;100446.19;;;4.29;100.00
69751;BME280;57335;52.288;6.056;2024-02-26T08:36:44;100454.22;;;4.19;100.00
69751;BME280;57335;52.288;6.056;2024-02-26T08:39:11;100446.19;;;4.29;100.00
69751;BME280;57335;52.288;6.056;2024-02-26T08:41:40;100442.16;;;4.26;100.00
69751;BME280;57335;52.288;6.056;2024-02-26T08:44:07;100442.06;;;4.19;100.00
69751;BME280;57335;52.288;6.056;2024-02-26T08:46:33;100448.34;;;4.25;100.00
69751;BME280;57335;52.288;6.056;2024-02-26T08:49:00;100443.03;;;4.18;100.00
69751;BME280;57335;52.288;6.056;2024-02-26T08:51:27;100442.31;;;4.25;100.00
69751;BME280;57335;52.288;6.056;2024-02-26T08:53:54;100457.03;;;4.32;100.00
69751;BME280;57335;52.288;6.056;2024-02-26T08:56:20;100461.75;;;4.29;100.00
69751;BME280;57335;52.288;6.056;2024-02-26T08:58:47;100474.56;;;4.30;100.00
69751;BME280;57335;52.288;6.056;2024-02-26T09:01:20;100463.53;;;4.28;100.00
69751;BME280;57335;52.288;6.056;2024-02-26T09:03:47;100459.28;;;4.35;100.00
69751;BME280;57335;52.288;6.056;2024-02-26T09:06:14;100475.81;;;4.34;100.00
69751;BME280;57335;52.288;6.056;2024-02-26T09:08:41;100470.31;;;4.37;100.00
69751;BME280;57335;52.288;6.056;2024-02-26T09:11:08;100477.09;;;4.38;100.00
69751;BME280;57335;52.288;6.056;2024-02-26T09:13:36;100474.31;;;4.40;100.00
69751;BME280;57335;52.288;6.056;2024-02-26T09:16:04;100482.03;;;4.48;100.00
69751;BME280;57335;52.288;6.056;2024-02-26T09:18:31;100485.16;;;4.44;100.00
69751;BME280;57335;52.288;6.056;2024-02-26T09:20:58;100491.09;;;4.52;100.00
69751;BME280;57335;52.288;6.056;2024-02-26T09:23:24;100498.88;;;4.52;100.00
69751;BME280;57335;52.288;6.056;2024-02-26T09:25:51;100488.97;;;4.56;100.00
69751;BME280;57335;52.288;6.056;2024-02-26T09:28:17;100498.06;;;4.52;100.00
69751;BME280;57335;52.288;6.056;2024-02-26T09:30:44;100500.84;;;4.50;100.00
69751;BME280;57335;52.288;6.056;2024-02-26T09:33:11;100506.31;;;4.55;100.00
69751;BME280;57335;52.288;6.056;2024-02-26T09:35:39;100504.63;;;4.63;100.00
69751;BME280;57335;52.288;6.056;2024-02-26T09:38:07;100508.22;;;4.62;100.00
69751;BME280;57335;52.288;6.056;2024-02-26T09:40:35;100512.88;;;4.66;100.00
69751;BME280;57335;52.288;6.056;2024-02-26T09:43:04;100526.72;;;4.58;100.00
69751;BME280;57335;52.288;6.056;2024-02-26T09:45:32;100528.97;;;4.62;100.00
69751;BME280;57335;52.288;6.056;2024-02-26T09:48:00;100533.09;;;4.71;100.00
69751;BME280;57335;52.288;6.056;2024-02-26T09:50:29;100534.75;;;4.72;100.00
69751;BME280;57335;52.288;6.056;2024-02-26T09:52:56;100536.00;;;4.76;100.00
69751;BME280;57335;52.288;6.056;2024-02-26T09:55:26;100546.66;;;4.81;100.00
69751;BME280;57335;52.288;6.056;2024-02-26T09:57:52;100546.72;;;4.73;100.00
69751;BME280;57335;52.288;6.056;2024-02-26T10:00:21;100551.56;;;4.76;100.00
69751;BME280;57335;52.288;6.056;2024-02-26T10:02:48;100555.59;;;4.78;100.00
69751;BME280;57335;52.288;6.056;2024-02-26T10:05:18;100559.69;;;4.73;100.00
69751;BME280;57335;52.288;6.056;2024-02-26T10:07:49;100556.03;;;4.67;100.00
69751;BME280;57335;52.288;6.056;2024-02-26T10:10:17;100550.31;;;4.72;100.00
69751;BME280;57335;52.288;6.056;2024-02-26T10:12:44;100555.97;;;4.75;100.00
69751;BME280;57335;52.288;6.056;2024-02-26T10:15:10;100562.28;;;4.73;100.00
69751;BME280;57335;52.288;6.056;2024-02-26T10:17:37;100566.53;;;4.74;100.00
69751;BME280;57335;52.288;6.056;2024-02-26T10:20:16;100572.41;;;4.68;100.00
69751;BME280;57335;52.288;6.056;2024-02-26T10:22:49;100582.09;;;4.74;100.00
69751;BME280;57335;52.288;6.056;2024-02-26T10:25:17;100580.06;;;4.84;100.00
69751;BME280;57335;52.288;6.056;2024-02-26T10:27:45;100580.47;;;4.73;100.00
69751;BME280;57335;52.288;6.056;2024-02-26T10:30:21;100584.63;;;4.82;100.00
69751;BME280;57335;52.288;6.056;2024-02-26T10:32:49;100584.31;;;4.77;100.00
69751;BME280;57335;52.288;6.056;2024-02-26T10:35:17;100595.47;;;4.63;100.00
69751;BME280;57335;52.288;6.056;2024-02-26T10:37:46;100599.47;;;4.73;100.00
69751;BME280;57335;52.288;6.056;2024-02-26T10:40:13;100592.47;;;4.74;100.00
69751;BME280;57335;52.288;6.056;2024-02-26T10:42:41;100607.41;;;4.72;100.00
69751;BME280;57335;52.288;6.056;2024-02-26T10:45:09;100609.31;;;4.78;100.00
69751;BME280;57335;52.288;6.056;2024-02-26T10:47:36;100608.63;;;4.84;100.00
69751;BME280;57335;52.288;6.056;2024-02-26T10:50:05;100630.09;;;4.78;100.00
69751;BME280;57335;52.288;6.056;2024-02-26T10:52:33;100606.19;;;4.83;100.00
69751;BME280;57335;52.288;6.056;2024-02-26T10:55:05;100622.78;;;4.82;100.00
69751;BME280;57335;52.288;6.056;2024-02-26T10:57:40;100635.75;;;4.82;100.00
69751;BME280;57335;52.288;6.056;2024-02-26T11:00:08;100629.09;;;4.79;100.00
69751;BME280;57335;52.288;6.056;2024-02-26T11:02:37;100636.56;;;4.82;100.00
69751;BME280;57335;52.288;6.056;2024-02-26T11:05:06;100635.69;;;4.90;100.00
69751;BME280;57335;52.288;6.056;2024-02-26T11:07:36;100646.59;;;4.85;100.00
69751;BME280;57335;52.288;6.056;2024-02-26T11:10:04;100649.00;;;4.87;100.00
69751;BME280;57335;52.288;6.056;2024-02-26T11:12:33;100664.59;;;4.87;100.00
69751;BME280;57335;52.288;6.056;2024-02-26T11:15:04;100647.19;;;4.95;100.00
69751;BME280;57335;52.288;6.056;2024-02-26T11:17:31;100645.72;;;4.93;100.00
69751;BME280;57335;52.288;6.056;2024-02-26T11:19:59;100660.38;;;4.86;100.00
69751;BME280;57335;52.288;6.056;2024-02-26T11:22:26;100665.69;;;4.92;100.00
69751;BME280;57335;52.288;6.056;2024-02-26T11:24:53;100658.44;;;4.88;100.00
69751;BME280;57335;52.288;6.056;2024-02-26T11:27:24;100657.56;;;4.95;100.00
69751;BME280;57335;52.288;6.056;2024-02-26T11:29:54;100664.03;;;4.99;100.00
69751;BME280;57335;52.288;6.056;2024-02-26T11:32:21;100677.81;;;5.00;100.00
69751;BME280;57335;52.288;6.056;2024-02-26T11:34:48;100667.03;;;4.88;100.00
69751;BME280;57335;52.288;6.056;2024-02-26T11:37:17;100669.44;;;4.90;100.00
69751;BME280;57335;52.288;6.056;2024-02-26T11:39:45;100682.44;;;4.90;100.00
69751;BME280;57335;52.288;6.056;2024-02-26T11:42:15;100677.56;;;4.87;100.00
69751;BME280;57335;52.288;6.056;2024-02-26T11:44:42;100679.66;;;4.91;100.00
69751;BME280;57335;52.288;6.056;2024-02-26T11:47:14;100691.31;;;4.95;100.00
69751;BME280;57335;52.288;6.056;2024-02-26T11:49:44;100674.81;;;4.88;100.00
69751;BME280;57335;52.288;6.056;2024-02-26T11:52:13;100672.22;;;4.88;100.00
69751;BME280;57335;52.288;6.056;2024-02-26T11:54:50;100681.00;;;4.87;100.00
69751;BME280;57335;52.288;6.056;2024-02-26T11:57:39;100682.44;;;4.90;100.00
69751;BME280;57335;52.288;6.056;2024-02-26T12:02:52;100675.50;;;4.82;100.00
69751;BME280;57335;52.288;6.056;2024-02-26T12:05:26;100686.00;;;4.89;100.00
69751;BME280;57335;52.288;6.056;2024-02-26T12:08:02;100693.63;;;4.90;100.00
69751;BME280;57335;52.288;6.056;2024-02-26T12:10:35;100698.19;;;4.88;100.00
69751;BME280;57335;52.288;6.056;2024-02-26T12:13:07;100724.78;;;4.90;100.00
69751;BME280;57335;52.288;6.056;2024-02-26T12:15:38;100702.34;;;4.97;100.00
69751;BME280;57335;52.288;6.056;2024-02-26T12:18:06;100697.50;;;4.94;100.00
69751;BME280;57335;52.288;6.056;2024-02-26T12:20:34;100698.66;;;4.92;100.00
69751;BME280;57335;52.288;6.056;2024-02-26T12:23:02;100699.44;;;4.92;100.00
69751;BME280;57335;52.288;6.056;2024-02-26T12:25:31;100702.00;;;5.00;100.00
69751;BME280;57335;52.288;6.056;2024-02-26T12:27:59;100712.91;;;4.96;100.00
69751;BME280;57335;52.288;6.056;2024-02-26T12:30:26;100713.72;;;4.96;100.00
69751;BME280;57335;52.288;6.056;2024-02-26T12:32:56;100714.00;;;5.02;100.00
69751;BME280;57335;52.288;6.056;2024-02-26T12:35:24;100716.78;;;5.00;100.00
69751;BME280;57335;52.288;6.056;2024-02-26T12:37:52;100719.00;;;5.03;100.00
69751;BME280;57335;52.288;6.056;2024-02-26T12:40:20;100720.69;;;4.96;100.00
69751;BME280;57335;52.288;6.056;2024-02-26T12:42:47;100728.50;;;4.96;100.00
69751;BME280;57335;52.288;6.056;2024-02-26T12:45:15;100728.59;;;5.03;100.00
69751;BME280;57335;52.288;6.056;2024-02-26T12:47:44;100736.53;;;5.09;100.00
69751;BME280;57335;52.288;6.056;2024-02-26T12:50:12;100732.06;;;5.18;100.00
69751;BME280;57335;52.288;6.056;2024-02-26T12:52:42;100742.75;;;5.23;100.00
69751;BME280;57335;52.288;6.056;2024-02-26T12:55:11;100737.38;;;5.25;100.00